PROFILE

 METAR AND TAF INFORMATION
ADDS - METARS form results

(2020 UTC 18 February 2019)
http://aviationweather.gov/metar/data/
 
TAF FNMO 181015Z 1812/1824 23010KT 9999 FEW012 BECMG 1817/1819 15012KT CAVOK 

 AIRPORT MAP

 RUNWAY INFORMATION
Runway 08 Runway length 8202 ft Runway width 148 ft
Runway elevation 210 ft Runway displaced threshold 0 ft Runway heading 66
Runway 26 Runway length 8202 ft Runway width 148 ft
Runway elevation 210 ft Runway displaced threshold 0 ft Runway heading 246

 AIRPORT FREQUENCIES
Type AFIS Name AFIS Frequency 118.1 MHZ

 AIRPORT NEAR NAVIGATION AIDS
Type NDB Name Namibe Frequency 358 KHZ
Type VOR-DME Name Namibe Frequency 114100 KHZ